sensor_id;sensor_type;location;lat;lon;timestamp;P1;durP1;ratioP1;P2;durP2;ratioP2
50681;SDS011;36779;52.168;20.878;2023-02-25T00:01:54;26.70;;;10.90;;
50681;SDS011;36779;52.168;20.878;2023-02-25T00:04:51;30.20;;;11.20;;
50681;SDS011;36779;52.168;20.878;2023-02-25T00:07:40;29.80;;;10.60;;
50681;SDS011;36779;52.168;20.878;2023-02-25T00:10:30;27.30;;;10.40;;
50681;SDS011;36779;52.168;20.878;2023-02-25T00:13:21;30.80;;;10.80;;
50681;SDS011;36779;52.168;20.878;2023-02-25T00:16:10;26.00;;;10.90;;
50681;SDS011;36779;52.168;20.878;2023-02-25T00:19:01;28.20;;;10.90;;
50681;SDS011;36779;52.168;20.878;2023-02-25T00:21:50;30.60;;;11.00;;
50681;SDS011;36779;52.168;20.878;2023-02-25T00:24:40;34.40;;;11.10;;
50681;SDS011;36779;52.168;20.878;2023-02-25T00:27:30;22.50;;;9.60;;
50681;SDS011;36779;52.168;20.878;2023-02-25T00:30:19;24.50;;;9.40;;
50681;SDS011;36779;52.168;20.878;2023-02-25T00:33:10;22.20;;;9.10;;
50681;SDS011;36779;52.168;20.878;2023-02-25T00:36:03;29.60;;;9.00;;
50681;SDS011;36779;52.168;20.878;2023-02-25T00:38:55;20.00;;;8.00;;
50681;SDS011;36779;52.168;20.878;2023-02-25T00:41:45;24.10;;;7.90;;
50681;SDS011;36779;52.168;20.878;2023-02-25T00:47:24;19.30;;;8.30;;
50681;SDS011;36779;52.168;20.878;2023-02-25T00:50:13;21.10;;;8.50;;
50681;SDS011;36779;52.168;20.878;2023-02-25T00:53:02;18.30;;;7.90;;
50681;SDS011;36779;52.168;20.878;2023-02-25T00:55:57;20.30;;;8.60;;
50681;SDS011;36779;52.168;20.878;2023-02-25T00:58:48;20.70;;;8.90;;
50681;SDS011;36779;52.168;20.878;2023-02-25T01:01:38;24.70;;;8.60;;
50681;SDS011;36779;52.168;20.878;2023-02-25T01:04:27;19.20;;;7.80;;
50681;SDS011;36779;52.168;20.878;2023-02-25T01:10:04;23.90;;;8.50;;
50681;SDS011;36779;52.168;20.878;2023-02-25T01:12:57;19.50;;;7.40;;
50681;SDS011;36779;52.168;20.878;2023-02-25T01:15:46;19.20;;;7.50;;
50681;SDS011;36779;52.168;20.878;2023-02-25T01:18:36;24.60;;;8.20;;
50681;SDS011;36779;52.168;20.878;2023-02-25T01:21:27;22.70;;;8.30;;
50681;SDS011;36779;52.168;20.878;2023-02-25T01:24:18;23.50;;;7.40;;
50681;SDS011;36779;52.168;20.878;2023-02-25T01:27:11;17.20;;;7.10;;
50681;SDS011;36779;52.168;20.878;2023-02-25T01:30:05;17.00;;;6.40;;
50681;SDS011;36779;52.168;20.878;2023-02-25T01:32:56;18.30;;;6.20;;
50681;SDS011;36779;52.168;20.878;2023-02-25T01:35:45;17.00;;;6.90;;
50681;SDS011;36779;52.168;20.878;2023-02-25T01:38:35;17.80;;;6.90;;
50681;SDS011;36779;52.168;20.878;2023-02-25T01:41:24;15.20;;;5.70;;
50681;SDS011;36779;52.168;20.878;2023-02-25T01:44:15;19.40;;;7.00;;
50681;SDS011;36779;52.168;20.878;2023-02-25T01:47:05;18.50;;;6.60;;
50681;SDS011;36779;52.168;20.878;2023-02-25T01:50:07;13.90;;;5.60;;
50681;SDS011;36779;52.168;20.878;2023-02-25T01:52:58;19.30;;;6.10;;
50681;SDS011;36779;52.168;20.878;2023-02-25T01:55:51;17.10;;;7.20;;
50681;SDS011;36779;52.168;20.878;2023-02-25T01:58:33;16.80;;;7.00;;
50681;SDS011;36779;52.168;20.878;2023-02-25T02:01:25;19.50;;;6.80;;
50681;SDS011;36779;52.168;20.878;2023-02-25T02:04:19;18.40;;;6.70;;
50681;SDS011;36779;52.168;20.878;2023-02-25T02:07:10;19.10;;;7.20;;
50681;SDS011;36779;52.168;20.878;2023-02-25T02:10:01;18.30;;;6.60;;
50681;SDS011;36779;52.168;20.878;2023-02-25T02:12:52;18.50;;;6.70;;
50681;SDS011;36779;52.168;20.878;2023-02-25T02:15:42;19.90;;;6.70;;
50681;SDS011;36779;52.168;20.878;2023-02-25T02:18:39;15.00;;;5.90;;
50681;SDS011;36779;52.168;20.878;2023-02-25T02:21:45;17.50;;;6.60;;
50681;SDS011;36779;52.168;20.878;2023-02-25T02:28:23;16.70;;;6.60;;
50681;SDS011;36779;52.168;20.878;2023-02-25T02:31:38;17.10;;;7.60;;
50681;SDS011;36779;52.168;20.878;2023-02-25T02:34:40;18.70;;;7.40;;
50681;SDS011;36779;52.168;20.878;2023-02-25T02:37:38;18.30;;;7.00;;
50681;SDS011;36779;52.168;20.878;2023-02-25T02:40:37;21.30;;;7.50;;
50681;SDS011;36779;52.168;20.878;2023-02-25T02:43:37;17.90;;;6.20;;
50681;SDS011;36779;52.168;20.878;2023-02-25T02:46:33;21.30;;;7.60;;
50681;SDS011;36779;52.168;20.878;2023-02-25T02:49:26;22.30;;;7.20;;
50681;SDS011;36779;52.168;20.878;2023-02-25T02:52:21;19.30;;;7.00;;
50681;SDS011;36779;52.168;20.878;2023-02-25T02:55:14;20.20;;;7.50;;
50681;SDS011;36779;52.168;20.878;2023-02-25T02:58:09;17.50;;;7.40;;
50681;SDS011;36779;52.168;20.878;2023-02-25T03:01:04;21.30;;;7.20;;
50681;SDS011;36779;52.168;20.878;2023-02-25T03:03:57;17.90;;;6.70;;
50681;SDS011;36779;52.168;20.878;2023-02-25T03:06:50;17.90;;;6.70;;
50681;SDS011;36779;52.168;20.878;2023-02-25T03:09:45;19.40;;;7.20;;
50681;SDS011;36779;52.168;20.878;2023-02-25T03:12:37;17.70;;;6.80;;
50681;SDS011;36779;52.168;20.878;2023-02-25T03:15:28;18.10;;;7.50;;
50681;SDS011;36779;52.168;20.878;2023-02-25T03:18:20;19.10;;;6.40;;
50681;SDS011;36779;52.168;20.878;2023-02-25T03:21:18;15.70;;;7.30;;
50681;SDS011;36779;52.168;20.878;2023-02-25T03:24:12;18.60;;;6.90;;
50681;SDS011;36779;52.168;20.878;2023-02-25T03:27:22;15.80;;;7.10;;
50681;SDS011;36779;52.168;20.878;2023-02-25T03:30:16;18.40;;;7.10;;
50681;SDS011;36779;52.168;20.878;2023-02-25T03:33:27;17.80;;;6.60;;
50681;SDS011;36779;52.168;20.878;2023-02-25T03:36:25;18.40;;;7.60;;
50681;SDS011;36779;52.168;20.878;2023-02-25T03:39:10;18.60;;;7.00;;
50681;SDS011;36779;52.168;20.878;2023-02-25T03:42:03;19.40;;;7.20;;
50681;SDS011;36779;52.168;20.878;2023-02-25T03:45:05;11.90;;;6.00;;
50681;SDS011;36779;52.168;20.878;2023-02-25T03:47:58;18.70;;;8.10;;
50681;SDS011;36779;52.168;20.878;2023-02-25T03:50:50;15.80;;;6.70;;
50681;SDS011;36779;52.168;20.878;2023-02-25T03:53:41;17.50;;;7.20;;
50681;SDS011;36779;52.168;20.878;2023-02-25T03:56:31;15.60;;;7.20;;
50681;SDS011;36779;52.168;20.878;2023-02-25T03:59:40;14.10;;;6.90;;
50681;SDS011;36779;52.168;20.878;2023-02-25T04:05:21;15.10;;;6.20;;
50681;SDS011;36779;52.168;20.878;2023-02-25T04:08:14;14.00;;;5.90;;
50681;SDS011;36779;52.168;20.878;2023-02-25T04:11:03;16.10;;;6.20;;
50681;SDS011;36779;52.168;20.878;2023-02-25T04:13:52;12.80;;;6.70;;
50681;SDS011;36779;52.168;20.878;2023-02-25T04:16:43;15.30;;;6.80;;
50681;SDS011;36779;52.168;20.878;2023-02-25T04:22:21;15.80;;;5.90;;
50681;SDS011;36779;52.168;20.878;2023-02-25T04:25:13;13.40;;;6.00;;
50681;SDS011;36779;52.168;20.878;2023-02-25T04:30:50;16.60;;;5.80;;
50681;SDS011;36779;52.168;20.878;2023-02-25T04:33:41;16.50;;;7.20;;
50681;SDS011;36779;52.168;20.878;2023-02-25T04:36:31;13.80;;;6.50;;
50681;SDS011;36779;52.168;20.878;2023-02-25T04:39:22;16.60;;;6.40;;
50681;SDS011;36779;52.168;20.878;2023-02-25T04:42:11;14.50;;;6.70;;
50681;SDS011;36779;52.168;20.878;2023-02-25T04:45:15;15.60;;;6.20;;
50681;SDS011;36779;52.168;20.878;2023-02-25T04:48:06;11.30;;;5.40;;
50681;SDS011;36779;52.168;20.878;2023-02-25T04:50:55;14.60;;;6.70;;
50681;SDS011;36779;52.168;20.878;2023-02-25T04:53:49;15.60;;;6.40;;
50681;SDS011;36779;52.168;20.878;2023-02-25T04:56:38;14.90;;;6.70;;
50681;SDS011;36779;52.168;20.878;2023-02-25T04:59:28;9.10;;;4.20;;
50681;SDS011;36779;52.168;20.878;2023-02-25T05:02:17;11.80;;;5.30;;
50681;SDS011;36779;52.168;20.878;2023-02-25T05:05:07;12.40;;;6.20;;
50681;SDS011;36779;52.168;20.878;2023-02-25T05:07:57;10.90;;;4.60;;
50681;SDS011;36779;52.168;20.878;2023-02-25T05:10:46;15.20;;;6.80;;
50681;SDS011;36779;52.168;20.878;2023-02-25T05:13:36;13.60;;;6.10;;
50681;SDS011;36779;52.168;20.878;2023-02-25T05:16:26;12.90;;;5.90;;
50681;SDS011;36779;52.168;20.878;2023-02-25T05:19:15;13.30;;;5.60;;
50681;SDS011;36779;52.168;20.878;2023-02-25T05:22:05;13.10;;;5.70;;
50681;SDS011;36779;52.168;20.878;2023-02-25T05:24:50;11.90;;;6.40;;
50681;SDS011;36779;52.168;20.878;2023-02-25T05:27:32;13.80;;;5.90;;
50681;SDS011;36779;52.168;20.878;2023-02-25T05:30:31;15.00;;;6.40;;
50681;SDS011;36779;52.168;20.878;2023-02-25T05:36:10;9.90;;;4.60;;
50681;SDS011;36779;52.168;20.878;2023-02-25T05:39:01;11.00;;;4.90;;
50681;SDS011;36779;52.168;20.878;2023-02-25T05:44:39;11.60;;;5.40;;
50681;SDS011;36779;52.168;20.878;2023-02-25T05:47:28;8.70;;;4.20;;
50681;SDS011;36779;52.168;20.878;2023-02-25T05:50:17;13.30;;;5.60;;
50681;SDS011;36779;52.168;20.878;2023-02-25T05:53:07;19.10;;;7.70;;
50681;SDS011;36779;52.168;20.878;2023-02-25T05:55:56;15.90;;;7.40;;
50681;SDS011;36779;52.168;20.878;2023-02-25T05:58:46;18.70;;;6.70;;
50681;SDS011;36779;52.168;20.878;2023-02-25T06:01:36;15.90;;;6.80;;
50681;SDS011;36779;52.168;20.878;2023-02-25T06:04:27;15.30;;;6.20;;
50681;SDS011;36779;52.168;20.878;2023-02-25T06:07:16;17.80;;;7.00;;
50681;SDS011;36779;52.168;20.878;2023-02-25T06:10:08;16.50;;;7.10;;
50681;SDS011;36779;52.168;20.878;2023-02-25T06:12:58;15.40;;;6.50;;
50681;SDS011;36779;52.168;20.878;2023-02-25T06:15:47;14.20;;;6.60;;
50681;SDS011;36779;52.168;20.878;2023-02-25T06:18:38;13.90;;;6.60;;
50681;SDS011;36779;52.168;20.878;2023-02-25T06:21:27;18.00;;;7.20;;
50681;SDS011;36779;52.168;20.878;2023-02-25T06:24:17;15.20;;;6.30;;
50681;SDS011;36779;52.168;20.878;2023-02-25T06:26:59;15.50;;;7.10;;
50681;SDS011;36779;52.168;20.878;2023-02-25T06:29:48;14.90;;;7.10;;
50681;SDS011;36779;52.168;20.878;2023-02-25T06:32:38;15.30;;;6.80;;
50681;SDS011;36779;52.168;20.878;2023-02-25T06:35:27;15.30;;;6.70;;
50681;SDS011;36779;52.168;20.878;2023-02-25T06:38:15;16.70;;;7.00;;
50681;SDS011;36779;52.168;20.878;2023-02-25T06:40:55;18.30;;;7.80;;
50681;SDS011;36779;52.168;20.878;2023-02-25T06:43:44;17.60;;;7.90;;
50681;SDS011;36779;52.168;20.878;2023-02-25T06:46:39;23.10;;;7.90;;
50681;SDS011;36779;52.168;20.878;2023-02-25T06:49:28;21.60;;;8.20;;
50681;SDS011;36779;52.168;20.878;2023-02-25T06:52:18;18.60;;;7.40;;
50681;SDS011;36779;52.168;20.878;2023-02-25T06:57:57;19.80;;;7.60;;
50681;SDS011;36779;52.168;20.878;2023-02-25T07:00:46;21.00;;;8.20;;
50681;SDS011;36779;52.168;20.878;2023-02-25T07:03:35;20.50;;;7.60;;
50681;SDS011;36779;52.168;20.878;2023-02-25T07:06:26;18.10;;;7.60;;
50681;SDS011;36779;52.168;20.878;2023-02-25T07:09:16;18.30;;;8.10;;
50681;SDS011;36779;52.168;20.878;2023-02-25T07:12:06;21.00;;;9.10;;
50681;SDS011;36779;52.168;20.878;2023-02-25T07:14:55;18.20;;;7.70;;
50681;SDS011;36779;52.168;20.878;2023-02-25T07:17:44;16.50;;;8.00;;
50681;SDS011;36779;52.168;20.878;2023-02-25T07:20:34;38.10;;;16.70;;
50681;SDS011;36779;52.168;20.878;2023-02-25T07:23:25;25.60;;;11.00;;
50681;SDS011;36779;52.168;20.878;2023-02-25T07:26:15;22.50;;;10.20;;
50681;SDS011;36779;52.168;20.878;2023-02-25T07:29:05;33.30;;;14.60;;
50681;SDS011;36779;52.168;20.878;2023-02-25T07:31:54;28.40;;;12.10;;
50681;SDS011;36779;52.168;20.878;2023-02-25T07:34:44;24.50;;;10.20;;
50681;SDS011;36779;52.168;20.878;2023-02-25T07:37:33;22.30;;;11.00;;
50681;SDS011;36779;52.168;20.878;2023-02-25T07:43:10;24.10;;;8.70;;
50681;SDS011;36779;52.168;20.878;2023-02-25T07:45:59;24.70;;;10.60;;
50681;SDS011;36779;52.168;20.878;2023-02-25T07:48:48;22.10;;;9.30;;
50681;SDS011;36779;52.168;20.878;2023-02-25T07:51:38;17.80;;;8.10;;
50681;SDS011;36779;52.168;20.878;2023-02-25T07:54:27;18.60;;;8.40;;
50681;SDS011;36779;52.168;20.878;2023-02-25T07:57:16;17.50;;;7.90;;
50681;SDS011;36779;52.168;20.878;2023-02-25T08:00:07;21.30;;;8.30;;
50681;SDS011;36779;52.168;20.878;2023-02-25T08:02:51;18.50;;;7.90;;
50681;SDS011;36779;52.168;20.878;2023-02-25T08:05:41;18.30;;;8.60;;
50681;SDS011;36779;52.168;20.878;2023-02-25T08:08:30;24.70;;;9.50;;
50681;SDS011;36779;52.168;20.878;2023-02-25T08:14:09;16.60;;;7.20;;
50681;SDS011;36779;52.168;20.878;2023-02-25T08:16:58;18.60;;;7.90;;
50681;SDS011;36779;52.168;20.878;2023-02-25T08:19:49;19.30;;;7.90;;
50681;SDS011;36779;52.168;20.878;2023-02-25T08:22:40;19.30;;;8.60;;
50681;SDS011;36779;52.168;20.878;2023-02-25T08:28:18;21.60;;;8.00;;
50681;SDS011;36779;52.168;20.878;2023-02-25T08:31:07;17.20;;;7.60;;
50681;SDS011;36779;52.168;20.878;2023-02-25T08:33:59;22.20;;;9.00;;
50681;SDS011;36779;52.168;20.878;2023-02-25T08:36:48;16.30;;;7.50;;
50681;SDS011;36779;52.168;20.878;2023-02-25T08:39:37;18.00;;;7.80;;
50681;SDS011;36779;52.168;20.878;2023-02-25T08:42:26;19.40;;;8.30;;
50681;SDS011;36779;52.168;20.878;2023-02-25T08:45:15;16.50;;;7.90;;
50681;SDS011;36779;52.168;20.878;2023-02-25T08:48:04;17.80;;;7.80;;
50681;SDS011;36779;52.168;20.878;2023-02-25T08:50:53;18.30;;;8.50;;
50681;SDS011;36779;52.168;20.878;2023-02-25T08:53:44;17.00;;;7.10;;
50681;SDS011;36779;52.168;20.878;2023-02-25T08:56:34;38.80;;;18.40;;
50681;SDS011;36779;52.168;20.878;2023-02-25T08:59:26;109.80;;;39.40;;
50681;SDS011;36779;52.168;20.878;2023-02-25T09:02:15;346.90;;;105.30;;
50681;SDS011;36779;52.168;20.878;2023-02-25T09:05:06;399.70;;;127.00;;
50681;SDS011;36779;52.168;20.878;2023-02-25T09:07:56;399.00;;;130.40;;
50681;SDS011;36779;52.168;20.878;2023-02-25T09:10:45;104.50;;;38.10;;
50681;SDS011;36779;52.168;20.878;2023-02-25T09:13:37;47.80;;;24.20;;
50681;SDS011;36779;52.168;20.878;2023-02-25T09:16:28;15.40;;;8.30;;
50681;SDS011;36779;52.168;20.878;2023-02-25T09:19:18;18.40;;;9.40;;
50681;SDS011;36779;52.168;20.878;2023-02-25T09:22:08;16.90;;;7.50;;
50681;SDS011;36779;52.168;20.878;2023-02-25T09:24:57;14.70;;;7.30;;
50681;SDS011;36779;52.168;20.878;2023-02-25T09:27:46;15.60;;;7.70;;
50681;SDS011;36779;52.168;20.878;2023-02-25T09:30:37;16.00;;;8.00;;
50681;SDS011;36779;52.168;20.878;2023-02-25T09:33:26;16.10;;;8.70;;
50681;SDS011;36779;52.168;20.878;2023-02-25T09:36:18;19.40;;;10.20;;
50681;SDS011;36779;52.168;20.878;2023-02-25T09:39:08;17.40;;;9.80;;
50681;SDS011;36779;52.168;20.878;2023-02-25T09:42:00;21.20;;;12.20;;
50681;SDS011;36779;52.168;20.878;2023-02-25T09:44:56;21.80;;;10.60;;
50681;SDS011;36779;52.168;20.878;2023-02-25T09:47:52;12.90;;;6.60;;
50681;SDS011;36779;52.168;20.878;2023-02-25T09:50:45;14.70;;;8.70;;
50681;SDS011;36779;52.168;20.878;2023-02-25T09:53:40;23.40;;;11.20;;
50681;SDS011;36779;52.168;20.878;2023-02-25T09:56:34;35.20;;;13.60;;
50681;SDS011;36779;52.168;20.878;2023-02-25T09:59:25;18.50;;;10.60;;
50681;SDS011;36779;52.168;20.878;2023-02-25T10:02:20;17.40;;;9.10;;
50681;SDS011;36779;52.168;20.878;2023-02-25T10:05:16;9.60;;;6.70;;
50681;SDS011;36779;52.168;20.878;2023-02-25T10:08:13;9.70;;;6.90;;
50681;SDS011;36779;52.168;20.878;2023-02-25T10:11:19;8.60;;;5.30;;
50681;SDS011;36779;52.168;20.878;2023-02-25T10:14:28;10.50;;;6.70;;
50681;SDS011;36779;52.168;20.878;2023-02-25T10:17:33;26.00;;;13.40;;
50681;SDS011;36779;52.168;20.878;2023-02-25T10:20:36;12.70;;;7.80;;
50681;SDS011;36779;52.168;20.878;2023-02-25T10:23:37;6.20;;;3.40;;
50681;SDS011;36779;52.168;20.878;2023-02-25T10:26:35;4.30;;;2.10;;
50681;SDS011;36779;52.168;20.878;2023-02-25T10:29:29;4.90;;;2.10;;
50681;SDS011;36779;52.168;20.878;2023-02-25T10:32:26;5.30;;;2.70;;
50681;SDS011;36779;52.168;20.878;2023-02-25T10:35:19;8.60;;;3.50;;
50681;SDS011;36779;52.168;20.878;2023-02-25T10:38:11;7.30;;;3.60;;
50681;SDS011;36779;52.168;20.878;2023-02-25T10:41:01;4.90;;;2.90;;
50681;SDS011;36779;52.168;20.878;2023-02-25T10:43:53;5.50;;;3.20;;
50681;SDS011;36779;52.168;20.878;2023-02-25T10:46:44;9.10;;;3.40;;
50681;SDS011;36779;52.168;20.878;2023-02-25T10:49:38;8.20;;;3.60;;
50681;SDS011;36779;52.168;20.878;2023-02-25T10:55:23;10.10;;;4.60;;
50681;SDS011;36779;52.168;20.878;2023-02-25T10:58:22;6.30;;;3.30;;
50681;SDS011;36779;52.168;20.878;2023-02-25T11:01:16;9.70;;;4.50;;
50681;SDS011;36779;52.168;20.878;2023-02-25T11:04:09;5.50;;;2.50;;
50681;SDS011;36779;52.168;20.878;2023-02-25T11:07:01;6.20;;;3.10;;
50681;SDS011;36779;52.168;20.878;2023-02-25T11:10:15;7.20;;;3.70;;
50681;SDS011;36779;52.168;20.878;2023-02-25T11:13:19;8.80;;;5.10;;
50681;SDS011;36779;52.168;20.878;2023-02-25T11:16:17;15.60;;;6.80;;
50681;SDS011;36779;52.168;20.878;2023-02-25T11:19:11;10.90;;;6.50;;
50681;SDS011;36779;52.168;20.878;2023-02-25T11:22:08;9.10;;;5.70;;
50681;SDS011;36779;52.168;20.878;2023-02-25T11:25:05;20.60;;;8.70;;
50681;SDS011;36779;52.168;20.878;2023-02-25T11:28:03;9.90;;;5.50;;
50681;SDS011;36779;52.168;20.878;2023-02-25T11:30:55;13.40;;;5.90;;
50681;SDS011;36779;52.168;20.878;2023-02-25T11:33:55;14.50;;;6.50;;
50681;SDS011;36779;52.168;20.878;2023-02-25T11:36:47;12.00;;;5.30;;
50681;SDS011;36779;52.168;20.878;2023-02-25T11:39:38;11.80;;;4.90;;
50681;SDS011;36779;52.168;20.878;2023-02-25T11:42:41;17.90;;;8.00;;
50681;SDS011;36779;52.168;20.878;2023-02-25T11:45:30;9.40;;;5.10;;
50681;SDS011;36779;52.168;20.878;2023-02-25T11:48:22;13.10;;;6.40;;
50681;SDS011;36779;52.168;20.878;2023-02-25T11:51:18;20.10;;;8.50;;
50681;SDS011;36779;52.168;20.878;2023-02-25T11:54:16;17.20;;;6.00;;
50681;SDS011;36779;52.168;20.878;2023-02-25T11:57:12;12.70;;;4.60;;
50681;SDS011;36779;52.168;20.878;2023-02-25T12:00:15;13.30;;;5.00;;
50681;SDS011;36779;52.168;20.878;2023-02-25T12:03:18;7.50;;;3.50;;
50681;SDS011;36779;52.168;20.878;2023-02-25T12:06:24;5.60;;;2.60;;
50681;SDS011;36779;52.168;20.878;2023-02-25T12:09:39;8.50;;;4.10;;
50681;SDS011;36779;52.168;20.878;2023-02-25T12:26:33;7.30;;;3.40;;
50681;SDS011;36779;52.168;20.878;2023-02-25T12:29:51;15.80;;;5.80;;
50681;SDS011;36779;52.168;20.878;2023-02-25T12:32:57;13.30;;;4.60;;
50681;SDS011;36779;52.168;20.878;2023-02-25T12:36:01;5.00;;;2.70;;
50681;SDS011;36779;52.168;20.878;2023-02-25T12:42:34;13.70;;;4.20;;
50681;SDS011;36779;52.168;20.878;2023-02-25T12:45:41;11.20;;;4.10;;
50681;SDS011;36779;52.168;20.878;2023-02-25T12:48:45;10.50;;;4.60;;
50681;SDS011;36779;52.168;20.878;2023-02-25T12:51:51;11.70;;;4.60;;
50681;SDS011;36779;52.168;20.878;2023-02-25T12:55:08;14.60;;;5.50;;
50681;SDS011;36779;52.168;20.878;2023-02-25T12:58:41;18.60;;;6.10;;
50681;SDS011;36779;52.168;20.878;2023-02-25T13:01:40;12.00;;;4.70;;
50681;SDS011;36779;52.168;20.878;2023-02-25T13:08:11;8.00;;;2.70;;
50681;SDS011;36779;52.168;20.878;2023-02-25T13:11:24;3.00;;;1.80;;
50681;SDS011;36779;52.168;20.878;2023-02-25T13:14:28;8.10;;;3.20;;
50681;SDS011;36779;52.168;20.878;2023-02-25T13:17:34;7.90;;;3.50;;
50681;SDS011;36779;52.168;20.878;2023-02-25T13:20:45;6.90;;;3.50;;
50681;SDS011;36779;52.168;20.878;2023-02-25T13:24:15;8.60;;;4.00;;
50681;SDS011;36779;52.168;20.878;2023-02-25T13:27:39;10.00;;;4.20;;
50681;SDS011;36779;52.168;20.878;2023-02-25T13:30:47;24.10;;;8.30;;
50681;SDS011;36779;52.168;20.878;2023-02-25T13:33:48;19.90;;;7.60;;
50681;SDS011;36779;52.168;20.878;2023-02-25T13:37:02;9.00;;;3.60;;
50681;SDS011;36779;52.168;20.878;2023-02-25T13:40:21;6.70;;;2.90;;
50681;SDS011;36779;52.168;20.878;2023-02-25T13:43:28;6.80;;;3.00;;
50681;SDS011;36779;52.168;20.878;2023-02-25T13:46:46;3.00;;;1.60;;
50681;SDS011;36779;52.168;20.878;2023-02-25T13:50:03;14.40;;;5.70;;
50681;SDS011;36779;52.168;20.878;2023-02-25T13:56:51;9.30;;;3.30;;
50681;SDS011;36779;52.168;20.878;2023-02-25T14:03:20;6.30;;;1.90;;
50681;SDS011;36779;52.168;20.878;2023-02-25T14:06:26;22.40;;;6.40;;
50681;SDS011;36779;52.168;20.878;2023-02-25T14:09:33;9.40;;;4.10;;
50681;SDS011;36779;52.168;20.878;2023-02-25T14:12:31;6.50;;;2.20;;
50681;SDS011;36779;52.168;20.878;2023-02-25T14:15:35;10.40;;;3.90;;
50681;SDS011;36779;52.168;20.878;2023-02-25T14:18:42;6.70;;;2.30;;
50681;SDS011;36779;52.168;20.878;2023-02-25T14:21:47;33.00;;;9.60;;
50681;SDS011;36779;52.168;20.878;2023-02-25T14:24:53;42.10;;;11.70;;
50681;SDS011;36779;52.168;20.878;2023-02-25T14:27:52;49.50;;;9.20;;
50681;SDS011;36779;52.168;20.878;2023-02-25T14:30:57;19.10;;;5.70;;
50681;SDS011;36779;52.168;20.878;2023-02-25T14:34:02;57.50;;;12.40;;
50681;SDS011;36779;52.168;20.878;2023-02-25T14:37:09;28.70;;;8.00;;
50681;SDS011;36779;52.168;20.878;2023-02-25T14:40:17;33.60;;;14.80;;
50681;SDS011;36779;52.168;20.878;2023-02-25T14:43:24;24.50;;;10.30;;
50681;SDS011;36779;52.168;20.878;2023-02-25T14:46:27;29.30;;;14.30;;
50681;SDS011;36779;52.168;20.878;2023-02-25T14:49:22;15.80;;;7.60;;
50681;SDS011;36779;52.168;20.878;2023-02-25T14:52:28;16.80;;;9.10;;
50681;SDS011;36779;52.168;20.878;2023-02-25T14:58:48;4.60;;;2.30;;
50681;SDS011;36779;52.168;20.878;2023-02-25T15:01:52;5.00;;;2.90;;
50681;SDS011;36779;52.168;20.878;2023-02-25T15:05:19;9.80;;;4.40;;
50681;SDS011;36779;52.168;20.878;2023-02-25T15:11:44;8.90;;;4.90;;
50681;SDS011;36779;52.168;20.878;2023-02-25T15:21:42;8.80;;;4.00;;
50681;SDS011;36779;52.168;20.878;2023-02-25T15:24:35;6.50;;;3.30;;
50681;SDS011;36779;52.168;20.878;2023-02-25T15:27:45;10.30;;;4.60;;
50681;SDS011;36779;52.168;20.878;2023-02-25T15:37:32;9.20;;;3.80;;
50681;SDS011;36779;52.168;20.878;2023-02-25T15:40:46;18.40;;;6.70;;
50681;SDS011;36779;52.168;20.878;2023-02-25T15:43:39;22.00;;;6.70;;
50681;SDS011;36779;52.168;20.878;2023-02-25T15:46:38;18.80;;;7.00;;
50681;SDS011;36779;52.168;20.878;2023-02-25T15:49:31;21.80;;;7.60;;
50681;SDS011;36779;52.168;20.878;2023-02-25T15:55:47;39.60;;;12.00;;
50681;SDS011;36779;52.168;20.878;2023-02-25T15:58:42;44.80;;;16.00;;
50681;SDS011;36779;52.168;20.878;2023-02-25T16:01:43;31.50;;;10.10;;
50681;SDS011;36779;52.168;20.878;2023-02-25T16:04:45;17.40;;;9.70;;
50681;SDS011;36779;52.168;20.878;2023-02-25T16:07:39;24.90;;;9.20;;
50681;SDS011;36779;52.168;20.878;2023-02-25T16:10:34;27.20;;;9.10;;
50681;SDS011;36779;52.168;20.878;2023-02-25T16:13:30;35.20;;;10.40;;
50681;SDS011;36779;52.168;20.878;2023-02-25T16:16:23;35.60;;;11.30;;
50681;SDS011;36779;52.168;20.878;2023-02-25T16:19:08;19.00;;;7.70;;
50681;SDS011;36779;52.168;20.878;2023-02-25T16:22:04;21.90;;;7.30;;
50681;SDS011;36779;52.168;20.878;2023-02-25T16:24:59;26.90;;;8.60;;
50681;SDS011;36779;52.168;20.878;2023-02-25T16:27:52;18.20;;;7.80;;
50681;SDS011;36779;52.168;20.878;2023-02-25T16:30:52;24.00;;;8.30;;
50681;SDS011;36779;52.168;20.878;2023-02-25T16:33:51;12.40;;;5.30;;
50681;SDS011;36779;52.168;20.878;2023-02-25T16:36:46;13.90;;;5.50;;
50681;SDS011;36779;52.168;20.878;2023-02-25T16:39:42;12.90;;;6.30;;
50681;SDS011;36779;52.168;20.878;2023-02-25T16:42:32;14.80;;;6.20;;
50681;SDS011;36779;52.168;20.878;2023-02-25T16:45:24;20.30;;;6.90;;
50681;SDS011;36779;52.168;20.878;2023-02-25T16:48:16;12.00;;;4.70;;
50681;SDS011;36779;52.168;20.878;2023-02-25T16:51:24;8.50;;;3.70;;
50681;SDS011;36779;52.168;20.878;2023-02-25T16:54:18;12.10;;;5.40;;
50681;SDS011;36779;52.168;20.878;2023-02-25T16:57:17;7.40;;;3.50;;
50681;SDS011;36779;52.168;20.878;2023-02-25T17:00:14;6.30;;;3.60;;
50681;SDS011;36779;52.168;20.878;2023-02-25T17:03:09;8.20;;;4.40;;
50681;SDS011;36779;52.168;20.878;2023-02-25T17:06:00;6.40;;;3.00;;
50681;SDS011;36779;52.168;20.878;2023-02-25T17:08:52;6.20;;;2.70;;
50681;SDS011;36779;52.168;20.878;2023-02-25T17:11:43;10.60;;;3.70;;
50681;SDS011;36779;52.168;20.878;2023-02-25T17:14:42;9.10;;;4.50;;
50681;SDS011;36779;52.168;20.878;2023-02-25T17:17:34;12.30;;;4.90;;
50681;SDS011;36779;52.168;20.878;2023-02-25T17:20:27;12.10;;;6.40;;
50681;SDS011;36779;52.168;20.878;2023-02-25T17:23:18;13.30;;;5.20;;
50681;SDS011;36779;52.168;20.878;2023-02-25T17:26:09;19.70;;;10.10;;
50681;SDS011;36779;52.168;20.878;2023-02-25T17:29:01;39.00;;;18.20;;
50681;SDS011;36779;52.168;20.878;2023-02-25T17:31:58;13.80;;;6.40;;
50681;SDS011;36779;52.168;20.878;2023-02-25T17:34:47;27.20;;;15.40;;
50681;SDS011;36779;52.168;20.878;2023-02-25T17:37:41;18.80;;;10.30;;
50681;SDS011;36779;52.168;20.878;2023-02-25T17:40:27;17.40;;;8.80;;
50681;SDS011;36779;52.168;20.878;2023-02-25T17:43:18;14.90;;;7.90;;
50681;SDS011;36779;52.168;20.878;2023-02-25T17:46:21;9.50;;;4.40;;
50681;SDS011;36779;52.168;20.878;2023-02-25T17:49:17;11.60;;;5.80;;
50681;SDS011;36779;52.168;20.878;2023-02-25T17:52:21;7.40;;;4.20;;
50681;SDS011;36779;52.168;20.878;2023-02-25T17:55:20;13.00;;;5.60;;
50681;SDS011;36779;52.168;20.878;2023-02-25T17:58:18;9.50;;;4.50;;
50681;SDS011;36779;52.168;20.878;2023-02-25T18:01:28;8.50;;;4.70;;
50681;SDS011;36779;52.168;20.878;2023-02-25T18:04:35;12.10;;;5.50;;
50681;SDS011;36779;52.168;20.878;2023-02-25T18:07:27;8.10;;;3.90;;
50681;SDS011;36779;52.168;20.878;2023-02-25T18:13:34;18.90;;;6.50;;
50681;SDS011;36779;52.168;20.878;2023-02-25T18:16:42;9.50;;;4.30;;
50681;SDS011;36779;52.168;20.878;2023-02-25T18:19:36;10.90;;;4.90;;
50681;SDS011;36779;52.168;20.878;2023-02-25T18:22:28;13.40;;;5.50;;
50681;SDS011;36779;52.168;20.878;2023-02-25T18:25:28;12.40;;;4.60;;
50681;SDS011;36779;52.168;20.878;2023-02-25T18:28:19;12.20;;;5.30;;
50681;SDS011;36779;52.168;20.878;2023-02-25T18:31:09;10.00;;;4.70;;
50681;SDS011;36779;52.168;20.878;2023-02-25T18:33:58;12.30;;;6.10;;
50681;SDS011;36779;52.168;20.878;2023-02-25T18:36:47;12.10;;;5.30;;